sensor_id;sensor_type;location;lat;lon;timestamp;P1;durP1;ratioP1;P2;durP2;ratioP2
3401;SDS011;1714;49.756;8.610;2022-08-19T00:03:26;17.60;;;15.68;;
3401;SDS011;1714;49.756;8.610;2022-08-19T00:13:28;16.92;;;15.07;;
3401;SDS011;1714;49.756;8.610;2022-08-19T00:23:30;23.23;;;15.57;;
3401;SDS011;1714;49.756;8.610;2022-08-19T00:33:34;17.02;;;15.23;;
3401;SDS011;1714;49.756;8.610;2022-08-19T00:43:36;18.15;;;15.38;;
3401;SDS011;1714;49.756;8.610;2022-08-19T00:53:39;19.02;;;15.52;;
3401;SDS011;1714;49.756;8.610;2022-08-19T01:03:42;19.75;;;17.58;;
3401;SDS011;1714;49.756;8.610;2022-08-19T01:13:57;21.95;;;17.55;;
3401;SDS011;1714;49.756;8.610;2022-08-19T01:24:00;20.60;;;16.92;;
3401;SDS011;1714;49.756;8.610;2022-08-19T01:34:02;21.60;;;17.67;;
3401;SDS011;1714;49.756;8.610;2022-08-19T01:44:05;21.23;;;16.70;;
3401;SDS011;1714;49.756;8.610;2022-08-19T01:54:18;19.73;;;17.27;;
3401;SDS011;1714;49.756;8.610;2022-08-19T02:04:25;22.52;;;18.73;;
3401;SDS011;1714;49.756;8.610;2022-08-19T02:14:28;19.98;;;17.10;;
3401;SDS011;1714;49.756;8.610;2022-08-19T02:24:30;22.33;;;17.55;;
3401;SDS011;1714;49.756;8.610;2022-08-19T02:34:32;26.48;;;17.95;;
3401;SDS011;1714;49.756;8.610;2022-08-19T02:44:35;26.38;;;17.27;;
3401;SDS011;1714;49.756;8.610;2022-08-19T02:54:37;21.73;;;16.75;;
3401;SDS011;1714;49.756;8.610;2022-08-19T03:04:39;25.05;;;16.90;;
3401;SDS011;1714;49.756;8.610;2022-08-19T03:14:42;19.70;;;15.10;;
3401;SDS011;1714;49.756;8.610;2022-08-19T03:24:47;20.02;;;17.85;;
3401;SDS011;1714;49.756;8.610;2022-08-19T03:34:49;22.48;;;17.95;;
3401;SDS011;1714;49.756;8.610;2022-08-19T03:44:52;19.48;;;16.15;;
3401;SDS011;1714;49.756;8.610;2022-08-19T03:54:53;22.48;;;18.83;;
3401;SDS011;1714;49.756;8.610;2022-08-19T04:04:56;18.45;;;15.45;;
3401;SDS011;1714;49.756;8.610;2022-08-19T04:14:57;17.45;;;15.45;;
3401;SDS011;1714;49.756;8.610;2022-08-19T04:24:59;20.65;;;14.77;;
3401;SDS011;1714;49.756;8.610;2022-08-19T04:35:01;18.17;;;14.75;;
3401;SDS011;1714;49.756;8.610;2022-08-19T04:45:17;19.52;;;15.07;;
3401;SDS011;1714;49.756;8.610;2022-08-19T04:55:20;20.58;;;14.85;;
3401;SDS011;1714;49.756;8.610;2022-08-19T05:05:21;21.58;;;15.65;;
3401;SDS011;1714;49.756;8.610;2022-08-19T05:15:24;19.45;;;15.98;;
3401;SDS011;1714;49.756;8.610;2022-08-19T05:25:26;19.92;;;15.48;;
3401;SDS011;1714;49.756;8.610;2022-08-19T05:35:28;21.13;;;16.33;;
3401;SDS011;1714;49.756;8.610;2022-08-19T05:45:32;19.92;;;16.15;;
3401;SDS011;1714;49.756;8.610;2022-08-19T05:55:39;20.87;;;16.87;;
3401;SDS011;1714;49.756;8.610;2022-08-19T06:05:41;20.70;;;16.17;;
3401;SDS011;1714;49.756;8.610;2022-08-19T06:15:49;21.90;;;17.50;;
3401;SDS011;1714;49.756;8.610;2022-08-19T06:25:54;20.83;;;16.35;;
3401;SDS011;1714;49.756;8.610;2022-08-19T06:35:56;18.10;;;15.05;;
3401;SDS011;1714;49.756;8.610;2022-08-19T06:45:59;18.60;;;15.65;;
3401;SDS011;1714;49.756;8.610;2022-08-19T06:56:04;19.80;;;14.80;;
3401;SDS011;1714;49.756;8.610;2022-08-19T07:06:10;15.50;;;13.70;;
3401;SDS011;1714;49.756;8.610;2022-08-19T07:16:37;16.08;;;12.18;;
3401;SDS011;1714;49.756;8.610;2022-08-19T07:26:41;11.95;;;10.25;;
3401;SDS011;1714;49.756;8.610;2022-08-19T07:36:49;13.32;;;11.30;;
3401;SDS011;1714;49.756;8.610;2022-08-19T07:46:53;12.10;;;9.73;;
3401;SDS011;1714;49.756;8.610;2022-08-19T07:56:57;14.38;;;9.63;;
3401;SDS011;1714;49.756;8.610;2022-08-19T08:06:59;10.43;;;8.30;;
3401;SDS011;1714;49.756;8.610;2022-08-19T08:17:21;14.73;;;8.57;;
3401;SDS011;1714;49.756;8.610;2022-08-19T08:27:39;14.48;;;8.55;;
3401;SDS011;1714;49.756;8.610;2022-08-19T08:37:44;7.70;;;6.53;;
3401;SDS011;1714;49.756;8.610;2022-08-19T08:47:54;9.30;;;5.85;;
3401;SDS011;1714;49.756;8.610;2022-08-19T08:58:32;6.07;;;5.00;;
3401;SDS011;1714;49.756;8.610;2022-08-19T09:19:19;4.93;;;4.43;;
3401;SDS011;1714;49.756;8.610;2022-08-19T09:29:21;5.10;;;4.60;;
3401;SDS011;1714;49.756;8.610;2022-08-19T09:39:24;5.43;;;4.55;;
3401;SDS011;1714;49.756;8.610;2022-08-19T09:49:34;5.28;;;4.05;;
3401;SDS011;1714;49.756;8.610;2022-08-19T09:59:38;5.22;;;3.63;;
3401;SDS011;1714;49.756;8.610;2022-08-19T10:09:40;9.57;;;4.25;;
3401;SDS011;1714;49.756;8.610;2022-08-19T10:19:43;4.85;;;3.90;;
3401;SDS011;1714;49.756;8.610;2022-08-19T10:29:54;4.60;;;4.20;;
3401;SDS011;1714;49.756;8.610;2022-08-19T10:39:58;5.38;;;4.93;;
3401;SDS011;1714;49.756;8.610;2022-08-19T10:50:02;6.22;;;4.78;;
3401;SDS011;1714;49.756;8.610;2022-08-19T11:00:27;6.13;;;5.63;;
3401;SDS011;1714;49.756;8.610;2022-08-19T11:10:32;8.10;;;6.22;;
3401;SDS011;1714;49.756;8.610;2022-08-19T11:20:35;8.40;;;5.97;;
3401;SDS011;1714;49.756;8.610;2022-08-19T11:30:37;7.47;;;6.78;;
3401;SDS011;1714;49.756;8.610;2022-08-19T11:40:40;7.95;;;6.97;;
3401;SDS011;1714;49.756;8.610;2022-08-19T11:50:42;9.80;;;7.70;;
3401;SDS011;1714;49.756;8.610;2022-08-19T12:00:54;10.07;;;6.43;;
3401;SDS011;1714;49.756;8.610;2022-08-19T12:10:56;12.65;;;7.88;;
3401;SDS011;1714;49.756;8.610;2022-08-19T12:21:01;7.97;;;6.82;;
3401;SDS011;1714;49.756;8.610;2022-08-19T12:31:05;8.60;;;7.35;;
3401;SDS011;1714;49.756;8.610;2022-08-19T12:41:29;6.30;;;5.72;;
3401;SDS011;1714;49.756;8.610;2022-08-19T12:51:40;11.07;;;4.63;;
3401;SDS011;1714;49.756;8.610;2022-08-19T13:01:44;5.78;;;4.13;;
3401;SDS011;1714;49.756;8.610;2022-08-19T13:11:46;5.63;;;4.05;;
3401;SDS011;1714;49.756;8.610;2022-08-19T13:21:49;5.28;;;3.33;;
3401;SDS011;1714;49.756;8.610;2022-08-19T13:31:57;4.03;;;3.58;;
3401;SDS011;1714;49.756;8.610;2022-08-19T13:42:24;3.45;;;3.15;;
3401;SDS011;1714;49.756;8.610;2022-08-19T13:52:27;4.40;;;3.38;;
3401;SDS011;1714;49.756;8.610;2022-08-19T14:02:29;4.70;;;3.47;;
3401;SDS011;1714;49.756;8.610;2022-08-19T14:12:32;5.70;;;3.58;;
3401;SDS011;1714;49.756;8.610;2022-08-19T14:22:36;5.75;;;4.30;;
3401;SDS011;1714;49.756;8.610;2022-08-19T14:32:40;5.60;;;3.80;;
3401;SDS011;1714;49.756;8.610;2022-08-19T14:42:45;5.80;;;3.93;;
3401;SDS011;1714;49.756;8.610;2022-08-19T14:52:48;4.43;;;4.03;;
3401;SDS011;1714;49.756;8.610;2022-08-19T15:03:07;4.22;;;3.88;;
3401;SDS011;1714;49.756;8.610;2022-08-19T15:13:09;5.10;;;3.30;;
3401;SDS011;1714;49.756;8.610;2022-08-19T15:23:10;4.55;;;3.60;;
3401;SDS011;1714;49.756;8.610;2022-08-19T15:33:13;5.55;;;4.13;;
3401;SDS011;1714;49.756;8.610;2022-08-19T15:43:19;3.70;;;3.22;;
3401;SDS011;1714;49.756;8.610;2022-08-19T15:53:21;5.60;;;3.55;;
3401;SDS011;1714;49.756;8.610;2022-08-19T16:03:25;5.07;;;3.60;;
3401;SDS011;1714;49.756;8.610;2022-08-19T16:13:52;3.65;;;3.25;;
3401;SDS011;1714;49.756;8.610;2022-08-19T16:23:56;7.60;;;4.27;;
3401;SDS011;1714;49.756;8.610;2022-08-19T16:33:59;5.10;;;3.60;;
3401;SDS011;1714;49.756;8.610;2022-08-19T16:44:02;3.75;;;3.45;;
3401;SDS011;1714;49.756;8.610;2022-08-19T16:54:04;7.15;;;3.80;;
3401;SDS011;1714;49.756;8.610;2022-08-19T17:04:07;5.97;;;4.20;;
3401;SDS011;1714;49.756;8.610;2022-08-19T17:14:10;4.45;;;4.05;;
3401;SDS011;1714;49.756;8.610;2022-08-19T17:24:14;4.70;;;4.30;;
3401;SDS011;1714;49.756;8.610;2022-08-19T17:34:16;5.10;;;4.22;;
3401;SDS011;1714;49.756;8.610;2022-08-19T17:44:17;5.65;;;4.90;;
3401;SDS011;1714;49.756;8.610;2022-08-19T17:54:20;6.00;;;5.13;;
3401;SDS011;1714;49.756;8.610;2022-08-19T18:04:32;7.93;;;4.93;;
3401;SDS011;1714;49.756;8.610;2022-08-19T18:14:35;8.32;;;5.55;;
3401;SDS011;1714;49.756;8.610;2022-08-19T18:24:40;5.88;;;4.40;;
3401;SDS011;1714;49.756;8.610;2022-08-19T18:34:43;7.85;;;4.80;;
3401;SDS011;1714;49.756;8.610;2022-08-19T18:44:45;4.95;;;4.15;;
3401;SDS011;1714;49.756;8.610;2022-08-19T18:55:06;5.47;;;3.78;;
3401;SDS011;1714;49.756;8.610;2022-08-19T19:05:08;3.92;;;3.53;;
3401;SDS011;1714;49.756;8.610;2022-08-19T19:15:14;5.78;;;3.45;;
3401;SDS011;1714;49.756;8.610;2022-08-19T19:25:17;4.50;;;4.07;;
3401;SDS011;1714;49.756;8.610;2022-08-19T19:35:20;7.32;;;4.30;;
3401;SDS011;1714;49.756;8.610;2022-08-19T19:45:22;5.28;;;3.60;;
3401;SDS011;1714;49.756;8.610;2022-08-19T19:55:25;5.85;;;3.88;;
3401;SDS011;1714;49.756;8.610;2022-08-19T20:05:27;5.65;;;4.10;;
3401;SDS011;1714;49.756;8.610;2022-08-19T20:15:30;6.47;;;5.13;;
3401;SDS011;1714;49.756;8.610;2022-08-19T20:25:38;8.18;;;5.20;;
3401;SDS011;1714;49.756;8.610;2022-08-19T20:35:41;6.95;;;5.10;;
3401;SDS011;1714;49.756;8.610;2022-08-19T20:45:44;10.80;;;5.55;;
3401;SDS011;1714;49.756;8.610;2022-08-19T20:55:46;6.90;;;5.07;;
3401;SDS011;1714;49.756;8.610;2022-08-19T21:05:56;7.80;;;5.70;;
3401;SDS011;1714;49.756;8.610;2022-08-19T21:15:59;9.05;;;6.30;;
3401;SDS011;1714;49.756;8.610;2022-08-19T21:26:07;8.18;;;5.10;;
3401;SDS011;1714;49.756;8.610;2022-08-19T21:36:11;6.65;;;5.30;;
3401;SDS011;1714;49.756;8.610;2022-08-19T21:46:19;6.13;;;5.45;;
3401;SDS011;1714;49.756;8.610;2022-08-19T21:56:24;7.53;;;6.30;;
3401;SDS011;1714;49.756;8.610;2022-08-19T22:06:26;5.85;;;5.25;;
3401;SDS011;1714;49.756;8.610;2022-08-19T22:16:29;5.75;;;5.15;;
3401;SDS011;1714;49.756;8.610;2022-08-19T22:26:32;8.93;;;5.85;;
3401;SDS011;1714;49.756;8.610;2022-08-19T22:36:34;11.68;;;5.68;;
3401;SDS011;1714;49.756;8.610;2022-08-19T22:46:37;9.27;;;6.18;;
3401;SDS011;1714;49.756;8.610;2022-08-19T22:56:40;8.35;;;5.70;;
3401;SDS011;1714;49.756;8.610;2022-08-19T23:06:44;8.35;;;5.95;;
3401;SDS011;1714;49.756;8.610;2022-08-19T23:16:46;7.50;;;5.18;;
3401;SDS011;1714;49.756;8.610;2022-08-19T23:26:53;7.87;;;5.50;;
3401;SDS011;1714;49.756;8.610;2022-08-19T23:37:13;7.50;;;6.50;;
3401;SDS011;1714;49.756;8.610;2022-08-19T23:47:15;11.95;;;6.25;;
3401;SDS011;1714;49.756;8.610;2022-08-19T23:57:17;7.85;;;5.95;;
